METAR Data
IDs: Format: Raw Decoded Include TAF

Data at: 0017 UTC 26 Oct 2021

KDWH 252353Z 10004KT 10SM CLR 28/22 A2992 RMK AO2 SLP127 T02830222 10322 20283 53002
KDWH 252253Z 12003KT 10SM CLR 31/22 A2990 RMK AO2 SLP124 T03110217
KDWH 252153Z 15003KT 10SM CLR 32/21 A2990 RMK AO2 SLP123 T03170211
KDWH 252053Z 21003KT 10SM SCT034 31/22 A2991 RMK AO2 SLP125 T03110222 56020
KDWH 251953Z 24004KT 10SM BKN034 31/23 A2993 RMK AO2 SLP131 T03060228
KDWH 251853Z 28003KT 10SM BKN022 29/23 A2994 RMK AO2 SLP137 T02940228
KDWH 251753Z 27005KT 10SM BKN022 28/23 A2997 RMK AO2 SLP146 T02830228 10294 20244 58007
KDWH 251653Z 17003KT 10SM OVC019 28/23 A2998 RMK AO2 SLP151 T02780228
KDWH 251553Z 00000KT 10SM OVC017 27/23 A2998 RMK AO2 SLP151 T02670228
KDWH 251453Z 26003KT 10SM OVC016 26/23 A2999 RMK AO2 SLP153 T02560228 51013
KDWH 251451Z 25004KT 10SM OVC016 26/23 A2999 RMK AO2
KDWH 251353Z 24003KT 10SM OVC013 25/23 A2998 RMK AO2 SLP148 T02500233
KDWH 251335Z 25004KT 10SM OVC014 25/23 A2997 RMK AO2 T02500233
KDWH 251302Z 29003KT 10SM OVC015 25/23 A2996 RMK AO2 T02500233
KDWH 251253Z 00000KT 10SM OVC014 25/23 A2995 RMK AO2 SLP140 T02500233
KDWH 251230Z 00000KT 10SM OVC014 24/23 A2995 RMK AO2 T02440233
KDWH 251153Z COR 25004KT 5SM SCT008 OVC014 24/23 A2993 RMK AO2 SLP134 T02440233 10250 20239 53009
KDWH 251146Z AUTO 26005KT 6SM BR FEW008 OVC014 24/23 A2993 RMK AO2 T02440233
KDWH 251053Z AUTO 26003KT 10SM BKN014 24/23 A2991 RMK AO2 SLP127 T02440233
KDWH 251024Z AUTO 00000KT 10SM OVC013 24/23 A2991 RMK AO2 T02390233
KDWH 251004Z AUTO 00000KT 10SM BKN015 24/23 A2991 RMK AO2 T02440233
KDWH 250953Z AUTO 20003KT 10SM BKN013 24/23 A2991 RMK AO2 SLP125 T02440233
KDWH 250928Z AUTO 20005KT 10SM OVC013 24/23 A2991 RMK AO2 T02440233
KDWH 250900Z AUTO 21004KT 10SM OVC009 24/23 A2991 RMK AO2 CIG 008V012 T02440233
KDWH 250853Z AUTO 10SM OVC010 24/23 A2991 RMK AO2 SLP125 T02440233 58001
KDWH 250826Z AUTO 22004KT 10SM BKN011 24/23 A2991 RMK AO2 CIG 009V014 T02440233
KDWH 250753Z AUTO 10SM SCT011 24/23 A2991 RMK AO2 SLP127 T02390228
KDWH 250653Z AUTO 19004KT 10SM SCT010 24/23 A2991 RMK AO2 SLP126 T02440233
KDWH 250650Z AUTO 18003KT 10SM SCT010 24/23 A2991 RMK AO2
KDWH 250633Z AUTO VRB03KT 10SM BKN010 24/23 A2991 RMK AO2 T02440233
KDWH 250621Z AUTO 00000KT 10SM SCT011 24/23 A2991 RMK AO2 T02440233
KDWH 250553Z AUTO 22004KT 10SM BKN011 25/23 A2990 RMK AO2 SLP122 T02500233 10278 20239 403170183 51004
KDWH 250453Z AUTO 19003KT 10SM BKN010 25/23 A2989 RMK AO2 SLP120 T02500233
KDWH 250353Z AUTO 00000KT 10SM CLR 24/23 A2989 RMK AO2 SLP119 T02440228
KDWH 250253Z AUTO 10SM FEW027 25/23 A2988 RMK AO2 SLP117 T02500228 53022
KDWH 250153Z 10SM SCT042 26/23 A2986 RMK AO2 SLP107 T02560228
KDWH 250053Z 10SM CLR 27/23 A2984 RMK AO2 SLP101 T02670228
KDWH 242353Z 13005KT 10SM CLR 28/23 A2982 RMK AO2 SLP095 T02780228 10317 20278 53004
KDWH 242253Z 22003KT 10SM CLR 29/21 A2981 RMK AO2 SLP090 T02890206
KDWH 242153Z 23006KT 10SM FEW046 32/21 A2981 RMK AO2 SLP090 T03170211
KDWH 242053Z 00000KT 10SM FEW045 31/21 A2981 RMK AO2 SLP091 T03110206 56021
KDWH 241953Z VRB04KT 10SM FEW038 31/22 A2983 RMK AO2 SLP097 T03060217
KDWH 241853Z 10SM FEW045 30/22 A2984 RMK AO2 SLP103 T03000222
KDWH 241753Z VRB05KT 10SM SCT029 SCT035 BKN055 30/22 A2987 RMK AO2 SLP112 T03000222 10300 20211 58009
KDWH 241729Z 16005KT 10SM FEW028 SCT035 28/22 A2988 RMK AO2 T02830222
KDWH 241721Z VRB04KT 10SM BKN028 BKN035 29/23 A2988 RMK AO2 T02940228
KDWH 241710Z 17007KT 10SM FEW026 SCT030 BKN037 29/22 A2989 RMK AO2 T02890222
KDWH 241653Z 15006KT 10SM BKN019 BKN037 BKN060 28/22 A2990 RMK AO2 SLP122 T02830222
KDWH 241553Z 14006KT 10SM BKN019 BKN037 BKN060 27/22 A2991 RMK AO2 SLP125 T02720222
KDWH 241453Z VRB06KT 10SM CLR 27/22 A2990 RMK AO2 SLP121 T02670222 53013
KDWH 241353Z 12005KT 10SM BKN055 24/22 A2988 RMK AO2 SLP115 T02390217
KDWH 241253Z 00000KT 10SM BKN055 21/20 A2986 RMK AO2 SLP109 T02110200